MET'MAP v2.0
soon released !

Expected late october,
this new version will be
more efficient, smarter,
and hosted on a brand new
server x3 powerfull...
...and still free !


Not compatible ?
Try the mobile version !

LOG IN : | Subscribe | Disclaimer | Who is Orbifly ? |
ICAO code :

TAF - ETAR Ramstein Air Base - 19 Jan 2020 19:46 UTC
Data Sources :     NOAA   


- Airport Elevation : 776 ft
- IATA code : RMS
- No reported NOTAMs.


ETAR - Ramstein Air Base

Latest METAR recorded : 2015/08/11 07:58 ETAR 110758Z AUTO 06002KT 9999 OVC045 21/17 A3005 RMK AO2 SLP171 T02080167 $
TAF TAF ETAR
Valid from the 19 at 18:00 until the 21 at 00:00 UTC


191800Z 1918/2024 02006KT 9999 BKN060 600601 QNH3071INS
BECMG 1923/1924 03006KT 6000 BR SCT010 BKN020 620203 QNH3082INS
BECMG 2003/2004 04006KT 8000 BR SCT010 BKN015 620152 QNH3083INS
BECMG 2008/2009 05009KT 9999 NSW BKN025 620251 QNH3083INS TX04/2014Z TNM02/2003Z

Source NOAA


MET'MAP, your aeronautical weather chart ! - Copyright ORBIFLY December 2007

Programming & Development : Alexandra Zaïnal
Co-Developer : Marc-Olivier Méhu
Technical & hardware support : Manuel Goepfert
Concept & Financing : Baudouin d'Aumeries